Main page
Satellite images 10-day forecastsClimateMarine weather Cyclones Lightning AirportsFAQ Newsletter About
Weather : Europe Africa North America South America Asia Australia-Oceania Others
Languages Contact

Warsaw, Poland

Warsaw Chopin Airport

latitude: 52-10N, longitude: 020-58E, elevation: 106 m


METAR: EPWA 051400Z 26007KT 220V290 CAVOK 22/07 Q1008 NOSIG
TAF: EPWA 051130Z 0512/0612 20008KT CAVOK BECMG 0608/0610 26013KT

Time: 16:12 (14:12 UTC)

Current weather observation

The report was made 12 minutes ago, at 14:00 UTC
Wind 7 kt from the West, varying between Southwest and West/Northwest
Temperature 22°C
Humidity 38%
Pressure 1008 hPa
Visibility 10 km or more
no clouds below 1500 m and no cumulonimbus

Change units

Forecast

The report was made 2 hours and 42 minutes ago, at 11:30 UTC
Forecast valid from 05 at 12 UTC to 06 at 12 UTC
Wind 8 kt from the South/Southwest
Visibility 10 km or more
no clouds below 1500 m and no cumulonimbus
Becoming
from 06 at 08 UTC to 06 at 10 UTC
Wind 13 kt from the West
The information on this site is subject to a disclaimer
Weather : Europe Africa North America South America Asia Australia-Oceania Others
Satellite images 10-day forecastsClimateMarine weather Cyclones Lightning AirportsFAQ Languages Contact Newsletter About